createdAt,value
2022-09-02T00:05:33.194Z,99.90
2022-09-02T00:11:18.069Z,99.90
2022-09-02T00:14:11.180Z,99.90
2022-09-02T00:17:01.087Z,99.90
2022-09-02T00:19:56.214Z,99.90
2022-09-02T00:25:41.194Z,99.90
2022-09-02T00:31:23.262Z,99.90
2022-09-02T00:34:14.027Z,99.90
2022-09-02T00:39:56.759Z,99.90
2022-09-02T00:42:47.454Z,99.90
2022-09-02T00:45:40.099Z,99.90
2022-09-02T00:51:25.028Z,99.90
2022-09-02T00:54:25.928Z,99.90
2022-09-02T00:57:22.255Z,99.90
2022-09-02T01:00:18.149Z,99.90
2022-09-02T01:03:13.715Z,99.90
2022-09-02T01:06:17.758Z,99.90
2022-09-02T01:09:11.493Z,99.90
2022-09-02T01:12:03.623Z,99.90
2022-09-02T01:17:44.998Z,99.90
2022-09-02T01:32:09.722Z,99.90
2022-09-02T01:35:02.963Z,99.90
2022-09-02T01:38:07.005Z,99.90
2022-09-02T01:40:56.237Z,99.90
2022-09-02T01:43:50.740Z,99.90
2022-09-02T01:46:47.130Z,99.90
2022-09-02T01:52:43.339Z,99.90
2022-09-02T01:55:35.552Z,99.90
2022-09-02T01:58:27.380Z,99.90
2022-09-02T02:04:21.787Z,99.90
2022-09-02T02:07:10.450Z,99.90
2022-09-02T02:10:05.592Z,99.90
2022-09-02T02:13:03.884Z,99.90
2022-09-02T02:15:55.841Z,99.90
2022-09-02T02:21:38.029Z,99.90
2022-09-02T02:27:39.492Z,99.90
2022-09-02T02:30:34.140Z,99.90
2022-09-02T02:33:36.163Z,99.90
2022-09-02T02:36:36.389Z,99.90
2022-09-02T02:39:33.288Z,99.90
2022-09-02T02:45:15.128Z,99.90
2022-09-02T02:48:22.301Z,99.90
2022-09-02T02:51:18.607Z,99.90
2022-09-02T02:54:11.905Z,99.90
2022-09-02T02:57:17.181Z,99.90
2022-09-02T03:00:17.826Z,99.90
2022-09-02T03:03:18.722Z,99.90
2022-09-02T03:06:13.605Z,99.90
2022-09-02T03:09:06.494Z,99.90
2022-09-02T03:12:01.728Z,99.90
2022-09-02T03:14:53.833Z,99.90
2022-09-02T03:17:48.595Z,99.90
2022-09-02T03:20:39.891Z,99.90
2022-09-02T03:23:31.841Z,99.90
2022-09-02T03:26:33.345Z,99.90
2022-09-02T03:29:29.093Z,99.90
2022-09-02T03:32:26.298Z,99.90
2022-09-02T03:35:32.868Z,99.90
2022-09-02T03:38:25.709Z,99.90
2022-09-02T03:41:16.484Z,99.90
2022-09-02T03:46:58.709Z,99.90
2022-09-02T03:49:52.271Z,99.90
2022-09-02T03:55:30.540Z,99.90
2022-09-02T03:58:27.896Z,99.90
2022-09-02T04:01:34.356Z,99.90
2022-09-02T04:04:32.934Z,99.90
2022-09-02T04:07:29.183Z,99.90
2022-09-02T04:10:26.195Z,99.90
2022-09-02T04:13:21.848Z,99.90
2022-09-02T04:17:09.994Z,99.90
2022-09-02T04:21:11.455Z,99.90
2022-09-02T04:27:49.433Z,99.90
2022-09-02T04:34:07.745Z,99.90
2022-09-02T04:36:58.208Z,99.90
2022-09-02T04:48:42.653Z,99.90
2022-09-02T04:51:44.743Z,99.90
2022-09-02T04:54:42.471Z,99.90
2022-09-02T05:06:44.575Z,99.90
2022-09-02T05:12:43.625Z,99.90
2022-09-02T05:15:40.500Z,99.90
2022-09-02T05:18:34.159Z,99.90
2022-09-02T05:21:27.056Z,99.90
2022-09-02T05:24:26.595Z,99.90
2022-09-02T05:33:18.566Z,99.90
2022-09-02T05:39:13.763Z,99.90
2022-09-02T06:11:09.581Z,99.90
2022-09-02T06:17:00.328Z,99.90
2022-09-02T06:20:12.194Z,99.90
2022-09-02T06:34:28.574Z,99.90
2022-09-02T06:37:28.533Z,99.90
2022-09-02T06:40:24.328Z,99.90
2022-09-02T06:46:32.146Z,99.90
2022-09-02T06:52:31.997Z,99.90
2022-09-02T06:58:25.382Z,99.90
2022-09-02T07:01:21.837Z,99.90
2022-09-02T07:10:19.340Z,99.90
2022-09-02T07:13:15.981Z,99.90
2022-09-02T07:19:01.485Z,99.90
2022-09-02T07:21:58.974Z,99.90
2022-09-02T07:24:50.792Z,99.90
2022-09-02T07:27:39.966Z,99.90
2022-09-02T07:30:35.926Z,99.90
2022-09-02T07:36:31.415Z,99.90
2022-09-02T07:39:27.315Z,99.90
2022-09-02T07:45:27.396Z,99.90
2022-09-02T07:48:22.061Z,99.90
2022-09-02T07:51:13.378Z,99.90
2022-09-02T07:54:08.105Z,99.90
2022-09-02T07:57:08.859Z,99.90
2022-09-02T08:00:07.003Z,99.90
2022-09-02T08:03:05.664Z,99.90
2022-09-02T08:12:01.030Z,99.90
2022-09-02T08:14:53.872Z,99.90
2022-09-02T08:17:59.730Z,99.90
2022-09-02T08:21:01.490Z,99.90
2022-09-02T08:23:51.633Z,99.90
2022-09-02T08:26:41.622Z,99.90
2022-09-02T08:32:29.535Z,99.90
2022-09-02T08:35:25.967Z,99.90
2022-09-02T08:38:15.134Z,99.90
2022-09-02T08:41:23.613Z,99.90
2022-09-02T08:44:21.611Z,99.90
2022-09-02T08:47:19.473Z,99.90
2022-09-02T08:50:18.260Z,99.90
2022-09-02T08:53:11.317Z,99.90
2022-09-02T08:56:22.832Z,99.90
2022-09-02T08:59:16.064Z,99.90
2022-09-02T09:02:12.241Z,99.90
2022-09-02T09:05:28.799Z,99.90
2022-09-02T09:08:25.738Z,99.90
2022-09-02T09:11:24.228Z,99.90
2022-09-02T09:14:28.643Z,99.90
2022-09-02T09:17:35.157Z,99.90
2022-09-02T09:20:27.663Z,99.90
2022-09-02T09:23:28.771Z,99.90
2022-09-02T09:26:31.691Z,99.90
2022-09-02T09:32:25.493Z,99.90
2022-09-02T09:35:26.323Z,99.90
2022-09-02T09:38:33.092Z,99.90
2022-09-02T09:41:25.337Z,96.10
2022-09-02T09:44:46.102Z,91.30
2022-09-02T09:53:24.490Z,70.60
2022-09-02T09:56:36.967Z,63.30
2022-09-02T09:59:47.470Z,60.50
2022-09-02T10:02:49.470Z,58.40
2022-09-02T10:05:41.946Z,56.30
2022-09-02T10:08:32.568Z,54.40
2022-09-02T10:11:26.142Z,52.80
2022-09-02T10:14:17.967Z,54.00
2022-09-02T10:17:22.569Z,50.00
2022-09-02T10:20:19.334Z,49.30
2022-09-02T10:23:22.467Z,50.20
2022-09-02T10:29:39.771Z,48.50
2022-09-02T10:32:40.998Z,45.50
2022-09-02T10:35:37.867Z,45.80
2022-09-02T10:38:39.625Z,46.50
2022-09-02T10:41:49.360Z,46.80
2022-09-02T10:44:51.611Z,45.90
2022-09-02T10:47:44.348Z,44.40
2022-09-02T10:50:50.063Z,43.60
2022-09-02T10:53:47.497Z,43.90
2022-09-02T10:56:43.300Z,45.20
2022-09-02T10:59:50.606Z,45.10
2022-09-02T11:02:46.218Z,44.90
2022-09-02T11:05:54.573Z,44.90
2022-09-02T11:08:48.420Z,43.20
2022-09-02T11:11:43.626Z,45.00
2022-09-02T11:14:36.650Z,45.00
2022-09-02T11:17:45.172Z,45.90
2022-09-02T11:20:45.424Z,44.50
2022-09-02T11:23:41.556Z,45.40
2022-09-02T11:26:38.705Z,45.70
2022-09-02T11:29:41.895Z,45.90
2022-09-02T11:32:39.545Z,47.00
2022-09-02T11:35:30.603Z,47.70
2022-09-02T11:38:34.804Z,46.90
2022-09-02T11:41:59.091Z,47.90
2022-09-02T11:45:11.662Z,47.80
2022-09-02T11:48:31.264Z,47.20
2022-09-02T11:52:04.642Z,47.40
2022-09-02T11:55:09.369Z,47.10
2022-09-02T11:58:03.349Z,46.80
2022-09-02T12:01:33.245Z,46.20
2022-09-02T12:07:51.391Z,44.90
2022-09-02T12:11:02.323Z,45.70
2022-09-02T12:13:52.322Z,45.60
2022-09-02T12:16:46.592Z,46.30
2022-09-02T12:19:55.619Z,45.10
2022-09-02T12:22:55.840Z,44.90
2022-09-02T12:25:54.785Z,45.50
2022-09-02T12:28:46.043Z,45.50
2022-09-02T12:31:52.167Z,45.00
2022-09-02T12:35:31.126Z,44.20
2022-09-02T12:38:35.217Z,43.10
2022-09-02T12:41:42.764Z,41.70
2022-09-02T12:44:45.911Z,42.90
2022-09-02T12:48:00.819Z,42.80
2022-09-02T12:51:00.429Z,43.70
2022-09-02T12:53:58.841Z,43.40
2022-09-02T12:56:56.741Z,43.10
2022-09-02T12:59:46.339Z,44.10
2022-09-02T13:02:51.467Z,43.00
2022-09-02T13:05:59.643Z,43.50
2022-09-02T13:09:26.918Z,42.40
2022-09-02T13:13:03.002Z,41.50
2022-09-02T13:16:19.050Z,42.20
2022-09-02T13:19:26.906Z,40.80
2022-09-02T13:23:02.373Z,41.30
2022-09-02T13:26:09.580Z,43.20
2022-09-02T13:29:42.557Z,45.80
2022-09-02T13:32:33.956Z,48.30
2022-09-02T13:41:32.741Z,49.60
2022-09-02T13:44:25.249Z,49.40
2022-09-02T13:47:17.855Z,50.00
2022-09-02T13:53:49.203Z,53.90
2022-09-02T13:56:17.435Z,54.40
2022-09-02T14:19:27.132Z,57.20
2022-09-02T14:53:26.768Z,61.20
2022-09-02T15:01:50.601Z,60.00
2022-09-02T15:10:13.674Z,63.10
2022-09-02T15:13:00.945Z,61.70
2022-09-02T15:24:11.604Z,62.60
2022-09-02T15:26:59.565Z,62.30
2022-09-02T15:43:46.003Z,61.20
2022-09-02T15:46:34.981Z,61.50
2022-09-02T15:49:24.592Z,60.70
2022-09-02T15:52:11.441Z,61.40
2022-09-02T16:00:34.781Z,63.20
2022-09-02T16:11:45.795Z,64.60
2022-09-02T16:14:32.911Z,63.40
2022-09-02T16:17:20.958Z,63.00
2022-09-02T16:20:08.365Z,63.90
2022-09-02T16:31:18.721Z,65.50
2022-09-02T16:34:08.381Z,65.70
2022-09-02T16:48:04.220Z,66.80
2022-09-02T16:50:52.758Z,66.00
2022-09-02T16:53:39.865Z,66.80
2022-09-02T17:07:37.774Z,67.90
2022-09-02T17:21:36.410Z,67.50
2022-09-02T17:24:27.743Z,68.10
2022-09-02T17:30:01.705Z,68.80
2022-09-02T17:41:35.415Z,70.30
2022-09-02T17:44:23.217Z,70.20
2022-09-02T17:47:12.124Z,69.50
2022-09-02T17:58:25.327Z,71.70
2022-09-02T18:01:16.820Z,71.30
2022-09-02T18:04:19.601Z,71.70
2022-09-02T18:07:14.116Z,72.30
2022-09-02T18:15:44.745Z,73.80
2022-09-02T18:18:31.752Z,73.90
2022-09-02T18:21:24.969Z,73.90
2022-09-02T18:24:16.633Z,74.40
2022-09-02T18:27:17.099Z,74.10
2022-09-02T18:30:08.820Z,75.20
2022-09-02T18:33:08.401Z,74.40
2022-09-02T18:36:02.888Z,75.30
2022-09-02T18:38:58.872Z,75.70
2022-09-02T18:42:01.164Z,75.70
2022-09-02T18:44:54.452Z,75.90
2022-09-02T18:47:47.506Z,76.90
2022-09-02T18:50:55.821Z,77.70
2022-09-02T18:53:48.503Z,77.40
2022-09-02T18:56:38.798Z,77.70
2022-09-02T18:59:32.869Z,78.90
2022-09-02T19:02:33.521Z,79.30
2022-09-02T19:05:24.969Z,79.60
2022-09-02T19:08:32.851Z,80.00
2022-09-02T19:14:26.155Z,79.70
2022-09-02T19:22:52.769Z,80.70
2022-09-02T19:25:45.047Z,81.80
2022-09-02T19:31:22.612Z,82.50
2022-09-02T19:42:33.241Z,83.00
2022-09-02T19:48:11.288Z,83.70
2022-09-02T19:53:46.319Z,84.00
2022-09-02T19:59:21.894Z,84.00
2022-09-02T20:16:07.607Z,85.40
2022-09-02T20:18:56.643Z,85.20
2022-09-02T20:21:45.893Z,84.80
2022-09-02T20:24:33.241Z,86.60
2022-09-02T20:27:31.541Z,85.80
2022-09-02T20:30:20.136Z,86.90
2022-09-02T20:33:17.533Z,86.80
2022-09-02T20:36:12.451Z,86.80
2022-09-02T20:39:23.188Z,87.50
2022-09-02T20:42:44.421Z,87.80
2022-09-02T20:45:37.833Z,88.00
2022-09-02T20:48:41.082Z,88.00
2022-09-02T20:51:35.548Z,88.20
2022-09-02T20:54:36.684Z,88.50
2022-09-02T20:57:33.385Z,87.90
2022-09-02T21:00:21.287Z,88.70
2022-09-02T21:11:54.257Z,87.30
2022-09-02T21:14:45.973Z,87.90
2022-09-02T21:17:47.768Z,88.20
2022-09-02T21:20:43.955Z,87.70
2022-09-02T21:23:38.464Z,88.50
2022-09-02T21:26:38.799Z,89.50
2022-09-02T21:29:30.719Z,90.20
2022-09-02T21:32:24.959Z,90.80
2022-09-02T21:35:14.631Z,90.50
2022-09-02T21:38:04.889Z,90.20
2022-09-02T21:41:10.648Z,90.40
2022-09-02T21:44:06.133Z,90.60
2022-09-02T21:47:03.873Z,90.10
2022-09-02T21:50:22.367Z,90.20
2022-09-02T21:53:19.222Z,90.70
2022-09-02T21:56:33.997Z,90.80
2022-09-02T21:59:39.524Z,90.80
2022-09-02T22:02:37.011Z,90.80
2022-09-02T22:05:35.760Z,91.20
2022-09-02T22:08:30.034Z,91.30
2022-09-02T22:11:23.962Z,91.30
2022-09-02T22:14:15.469Z,91.60
2022-09-02T22:17:09.568Z,91.70
2022-09-02T22:20:02.303Z,92.00
2022-09-02T22:22:54.321Z,91.80
2022-09-02T22:28:35.926Z,92.70
2022-09-02T22:31:26.559Z,92.70
2022-09-02T22:34:18.550Z,92.90
2022-09-02T22:37:08.489Z,92.80
2022-09-02T22:39:57.066Z,92.70
2022-09-02T22:42:46.932Z,92.40
2022-09-02T22:45:52.466Z,92.50
2022-09-02T22:48:59.492Z,92.70
2022-09-02T22:52:22.919Z,92.60
2022-09-02T22:55:10.560Z,93.00
2022-09-02T22:58:04.784Z,93.50
2022-09-02T23:01:02.428Z,94.00
2022-09-02T23:04:03.078Z,94.50
2022-09-02T23:09:37.764Z,95.50
2022-09-02T23:12:32.037Z,95.20
2022-09-02T23:15:32.968Z,95.20
2022-09-02T23:18:29.413Z,95.30
2022-09-02T23:21:26.549Z,95.40
2022-09-02T23:24:22.223Z,95.60
2022-09-02T23:27:17.139Z,95.70
2022-09-02T23:30:03.806Z,96.40
2022-09-02T23:33:06.158Z,97.20
2022-09-02T23:36:08.094Z,97.20
2022-09-02T23:39:18.946Z,97.10
2022-09-02T23:44:59.015Z,97.00
2022-09-02T23:48:01.442Z,97.20
2022-09-02T23:51:13.175Z,97.40
2022-09-02T23:54:21.297Z,97.70
2022-09-02T23:57:23.133Z,97.50
